sensor_id;sensor_type;location;lat;lon;timestamp;P1;durP1;ratioP1;P2;durP2;ratioP2
15130;SDS011;7666;50.920;4.628;2023-07-29T00:01:03;2.70;;;1.70;;
15130;SDS011;7666;50.920;4.628;2023-07-29T00:03:49;3.10;;;1.57;;
15130;SDS011;7666;50.920;4.628;2023-07-29T00:06:35;2.13;;;1.27;;
15130;SDS011;7666;50.920;4.628;2023-07-29T00:09:21;2.20;;;1.40;;
15130;SDS011;7666;50.920;4.628;2023-07-29T00:12:07;2.27;;;1.67;;
15130;SDS011;7666;50.920;4.628;2023-07-29T00:14:53;3.40;;;1.50;;
15130;SDS011;7666;50.920;4.628;2023-07-29T00:17:40;2.50;;;1.47;;
15130;SDS011;7666;50.920;4.628;2023-07-29T00:20:26;2.80;;;1.67;;
15130;SDS011;7666;50.920;4.628;2023-07-29T00:23:12;2.03;;;1.50;;
15130;SDS011;7666;50.920;4.628;2023-07-29T00:25:58;3.97;;;1.57;;
15130;SDS011;7666;50.920;4.628;2023-07-29T00:28:44;4.57;;;1.50;;
15130;SDS011;7666;50.920;4.628;2023-07-29T00:31:30;4.20;;;1.70;;
15130;SDS011;7666;50.920;4.628;2023-07-29T00:34:16;2.47;;;1.80;;
15130;SDS011;7666;50.920;4.628;2023-07-29T00:37:04;2.50;;;1.50;;
15130;SDS011;7666;50.920;4.628;2023-07-29T00:39:51;1.90;;;1.30;;
15130;SDS011;7666;50.920;4.628;2023-07-29T00:42:37;1.60;;;1.40;;
15130;SDS011;7666;50.920;4.628;2023-07-29T00:45:23;1.20;;;1.10;;
15130;SDS011;7666;50.920;4.628;2023-07-29T00:48:12;1.60;;;1.20;;
15130;SDS011;7666;50.920;4.628;2023-07-29T00:50:58;2.20;;;1.40;;
15130;SDS011;7666;50.920;4.628;2023-07-29T00:53:44;2.07;;;1.37;;
15130;SDS011;7666;50.920;4.628;2023-07-29T00:56:30;2.57;;;1.20;;
15130;SDS011;7666;50.920;4.628;2023-07-29T00:59:16;2.23;;;1.20;;
15130;SDS011;7666;50.920;4.628;2023-07-29T01:02:02;2.73;;;1.20;;
15130;SDS011;7666;50.920;4.628;2023-07-29T01:04:54;3.03;;;1.30;;
15130;SDS011;7666;50.920;4.628;2023-07-29T01:07:49;5.27;;;1.27;;
15130;SDS011;7666;50.920;4.628;2023-07-29T01:10:46;2.73;;;1.10;;
15130;SDS011;7666;50.920;4.628;2023-07-29T01:13:44;3.07;;;1.37;;
15130;SDS011;7666;50.920;4.628;2023-07-29T01:16:39;4.37;;;1.40;;
15130;SDS011;7666;50.920;4.628;2023-07-29T01:22:29;5.07;;;1.27;;
15130;SDS011;7666;50.920;4.628;2023-07-29T01:25:16;2.57;;;1.30;;
15130;SDS011;7666;50.920;4.628;2023-07-29T01:28:02;2.13;;;1.30;;
15130;SDS011;7666;50.920;4.628;2023-07-29T01:30:49;4.47;;;1.50;;
15130;SDS011;7666;50.920;4.628;2023-07-29T01:36:53;3.33;;;1.20;;
15130;SDS011;7666;50.920;4.628;2023-07-29T01:39:42;2.37;;;1.30;;
15130;SDS011;7666;50.920;4.628;2023-07-29T01:42:31;2.87;;;1.63;;
15130;SDS011;7666;50.920;4.628;2023-07-29T01:45:17;1.90;;;1.20;;
15130;SDS011;7666;50.920;4.628;2023-07-29T01:48:07;2.50;;;1.20;;
15130;SDS011;7666;50.920;4.628;2023-07-29T01:50:53;1.37;;;1.07;;
15130;SDS011;7666;50.920;4.628;2023-07-29T01:53:39;1.80;;;1.17;;
15130;SDS011;7666;50.920;4.628;2023-07-29T01:56:25;1.50;;;1.40;;
15130;SDS011;7666;50.920;4.628;2023-07-29T01:59:11;3.63;;;1.20;;
15130;SDS011;7666;50.920;4.628;2023-07-29T02:01:58;1.80;;;1.20;;
15130;SDS011;7666;50.920;4.628;2023-07-29T02:04:44;1.77;;;1.20;;
15130;SDS011;7666;50.920;4.628;2023-07-29T02:07:36;2.23;;;1.20;;
15130;SDS011;7666;50.920;4.628;2023-07-29T02:10:22;2.43;;;1.37;;
15130;SDS011;7666;50.920;4.628;2023-07-29T02:13:08;2.93;;;1.30;;
15130;SDS011;7666;50.920;4.628;2023-07-29T02:15:54;2.30;;;1.40;;
15130;SDS011;7666;50.920;4.628;2023-07-29T02:18:40;2.13;;;1.27;;
15130;SDS011;7666;50.920;4.628;2023-07-29T02:21:26;3.43;;;1.20;;
15130;SDS011;7666;50.920;4.628;2023-07-29T02:24:12;1.50;;;1.20;;
15130;SDS011;7666;50.920;4.628;2023-07-29T02:26:58;1.33;;;1.23;;
15130;SDS011;7666;50.920;4.628;2023-07-29T02:29:44;2.80;;;1.37;;
15130;SDS011;7666;50.920;4.628;2023-07-29T02:32:30;1.37;;;1.27;;
15130;SDS011;7666;50.920;4.628;2023-07-29T02:35:15;1.43;;;1.30;;
15130;SDS011;7666;50.920;4.628;2023-07-29T02:38:01;1.77;;;1.10;;
15130;SDS011;7666;50.920;4.628;2023-07-29T02:40:47;1.67;;;1.37;;
15130;SDS011;7666;50.920;4.628;2023-07-29T02:43:33;2.60;;;1.40;;
15130;SDS011;7666;50.920;4.628;2023-07-29T02:46:19;3.00;;;1.40;;
15130;SDS011;7666;50.920;4.628;2023-07-29T02:49:05;5.93;;;1.30;;
15130;SDS011;7666;50.920;4.628;2023-07-29T02:51:51;1.40;;;1.30;;
15130;SDS011;7666;50.920;4.628;2023-07-29T02:54:37;3.63;;;1.53;;
15130;SDS011;7666;50.920;4.628;2023-07-29T02:57:23;3.43;;;1.40;;
15130;SDS011;7666;50.920;4.628;2023-07-29T03:00:09;5.10;;;1.40;;
15130;SDS011;7666;50.920;4.628;2023-07-29T03:02:56;3.47;;;1.60;;
15130;SDS011;7666;50.920;4.628;2023-07-29T03:05:42;3.40;;;1.60;;
15130;SDS011;7666;50.920;4.628;2023-07-29T03:08:28;3.37;;;1.77;;
15130;SDS011;7666;50.920;4.628;2023-07-29T03:11:15;3.00;;;1.70;;
15130;SDS011;7666;50.920;4.628;2023-07-29T03:14:01;3.60;;;1.60;;
15130;SDS011;7666;50.920;4.628;2023-07-29T03:16:47;4.40;;;1.63;;
15130;SDS011;7666;50.920;4.628;2023-07-29T03:19:33;3.83;;;1.60;;
15130;SDS011;7666;50.920;4.628;2023-07-29T03:22:19;1.97;;;1.77;;
15130;SDS011;7666;50.920;4.628;2023-07-29T03:25:05;3.73;;;1.43;;
15130;SDS011;7666;50.920;4.628;2023-07-29T03:27:51;3.40;;;1.90;;
15130;SDS011;7666;50.920;4.628;2023-07-29T03:30:37;2.77;;;1.60;;
15130;SDS011;7666;50.920;4.628;2023-07-29T03:33:23;4.60;;;1.70;;
15130;SDS011;7666;50.920;4.628;2023-07-29T03:36:10;4.90;;;1.90;;
15130;SDS011;7666;50.920;4.628;2023-07-29T03:38:56;3.50;;;1.30;;
15130;SDS011;7666;50.920;4.628;2023-07-29T03:41:43;2.93;;;1.63;;
15130;SDS011;7666;50.920;4.628;2023-07-29T03:44:29;2.43;;;1.70;;
15130;SDS011;7666;50.920;4.628;2023-07-29T03:47:16;3.40;;;1.87;;
15130;SDS011;7666;50.920;4.628;2023-07-29T03:50:02;4.10;;;1.77;;
15130;SDS011;7666;50.920;4.628;2023-07-29T03:52:48;2.63;;;1.70;;
15130;SDS011;7666;50.920;4.628;2023-07-29T03:55:34;3.87;;;1.90;;
15130;SDS011;7666;50.920;4.628;2023-07-29T03:58:20;3.47;;;2.13;;
15130;SDS011;7666;50.920;4.628;2023-07-29T04:01:06;3.30;;;1.87;;
15130;SDS011;7666;50.920;4.628;2023-07-29T04:03:52;2.87;;;2.00;;
15130;SDS011;7666;50.920;4.628;2023-07-29T04:06:39;3.17;;;1.70;;
15130;SDS011;7666;50.920;4.628;2023-07-29T04:09:25;4.37;;;2.00;;
15130;SDS011;7666;50.920;4.628;2023-07-29T04:12:11;2.73;;;1.73;;
15130;SDS011;7666;50.920;4.628;2023-07-29T04:14:57;4.27;;;1.60;;
15130;SDS011;7666;50.920;4.628;2023-07-29T04:17:43;3.10;;;1.70;;
15130;SDS011;7666;50.920;4.628;2023-07-29T04:20:29;2.30;;;1.63;;
15130;SDS011;7666;50.920;4.628;2023-07-29T04:23:15;2.77;;;1.60;;
15130;SDS011;7666;50.920;4.628;2023-07-29T04:26:01;2.80;;;1.50;;
15130;SDS011;7666;50.920;4.628;2023-07-29T04:28:47;2.03;;;1.83;;
15130;SDS011;7666;50.920;4.628;2023-07-29T04:31:33;3.53;;;1.80;;
15130;SDS011;7666;50.920;4.628;2023-07-29T04:34:19;4.23;;;2.20;;
15130;SDS011;7666;50.920;4.628;2023-07-29T04:37:05;1.73;;;1.40;;
15130;SDS011;7666;50.920;4.628;2023-07-29T04:39:51;3.87;;;1.90;;
15130;SDS011;7666;50.920;4.628;2023-07-29T04:42:37;2.87;;;1.80;;
15130;SDS011;7666;50.920;4.628;2023-07-29T04:45:27;3.73;;;1.57;;
15130;SDS011;7666;50.920;4.628;2023-07-29T04:48:16;2.43;;;1.83;;
15130;SDS011;7666;50.920;4.628;2023-07-29T04:51:03;2.63;;;1.60;;
15130;SDS011;7666;50.920;4.628;2023-07-29T04:53:49;1.80;;;1.70;;
15130;SDS011;7666;50.920;4.628;2023-07-29T04:56:35;3.40;;;1.60;;
15130;SDS011;7666;50.920;4.628;2023-07-29T04:59:21;3.33;;;1.80;;
15130;SDS011;7666;50.920;4.628;2023-07-29T05:02:07;2.50;;;1.40;;
15130;SDS011;7666;50.920;4.628;2023-07-29T05:04:53;2.13;;;1.70;;
15130;SDS011;7666;50.920;4.628;2023-07-29T05:07:39;2.53;;;1.43;;
15130;SDS011;7666;50.920;4.628;2023-07-29T05:10:25;4.53;;;1.80;;
15130;SDS011;7666;50.920;4.628;2023-07-29T05:13:11;2.77;;;1.53;;
15130;SDS011;7666;50.920;4.628;2023-07-29T05:15:57;2.20;;;1.50;;
15130;SDS011;7666;50.920;4.628;2023-07-29T05:18:43;2.87;;;1.47;;
15130;SDS011;7666;50.920;4.628;2023-07-29T05:21:29;2.63;;;1.60;;
15130;SDS011;7666;50.920;4.628;2023-07-29T05:24:15;4.13;;;1.50;;
15130;SDS011;7666;50.920;4.628;2023-07-29T05:27:01;3.67;;;1.53;;
15130;SDS011;7666;50.920;4.628;2023-07-29T05:29:47;3.27;;;1.50;;
15130;SDS011;7666;50.920;4.628;2023-07-29T05:32:33;3.93;;;1.20;;
15130;SDS011;7666;50.920;4.628;2023-07-29T05:35:19;2.07;;;1.37;;
15130;SDS011;7666;50.920;4.628;2023-07-29T05:38:05;1.47;;;1.30;;
15130;SDS011;7666;50.920;4.628;2023-07-29T05:40:53;3.47;;;1.30;;
15130;SDS011;7666;50.920;4.628;2023-07-29T05:43:39;2.60;;;1.40;;
15130;SDS011;7666;50.920;4.628;2023-07-29T05:46:25;3.90;;;1.70;;
15130;SDS011;7666;50.920;4.628;2023-07-29T05:49:11;1.77;;;1.50;;
15130;SDS011;7666;50.920;4.628;2023-07-29T05:51:57;6.27;;;3.10;;
15130;SDS011;7666;50.920;4.628;2023-07-29T05:54:43;1.90;;;1.43;;
15130;SDS011;7666;50.920;4.628;2023-07-29T05:57:30;4.30;;;1.30;;
15130;SDS011;7666;50.920;4.628;2023-07-29T06:00:16;2.00;;;1.33;;
15130;SDS011;7666;50.920;4.628;2023-07-29T06:03:02;2.53;;;1.20;;
15130;SDS011;7666;50.920;4.628;2023-07-29T06:05:48;2.73;;;1.37;;
15130;SDS011;7666;50.920;4.628;2023-07-29T06:08:34;2.20;;;1.20;;
15130;SDS011;7666;50.920;4.628;2023-07-29T06:11:20;1.57;;;1.20;;
15130;SDS011;7666;50.920;4.628;2023-07-29T06:14:06;2.60;;;1.40;;
15130;SDS011;7666;50.920;4.628;2023-07-29T06:16:52;2.13;;;1.30;;
15130;SDS011;7666;50.920;4.628;2023-07-29T06:19:38;2.20;;;1.20;;
15130;SDS011;7666;50.920;4.628;2023-07-29T06:22:24;2.70;;;1.20;;
15130;SDS011;7666;50.920;4.628;2023-07-29T06:25:10;1.73;;;1.10;;
15130;SDS011;7666;50.920;4.628;2023-07-29T06:27:56;2.47;;;1.23;;
15130;SDS011;7666;50.920;4.628;2023-07-29T06:30:43;2.50;;;1.33;;
15130;SDS011;7666;50.920;4.628;2023-07-29T06:33:30;3.30;;;1.37;;
15130;SDS011;7666;50.920;4.628;2023-07-29T06:36:16;1.70;;;1.00;;
15130;SDS011;7666;50.920;4.628;2023-07-29T06:39:02;2.23;;;1.30;;
15130;SDS011;7666;50.920;4.628;2023-07-29T06:41:48;2.50;;;1.20;;
15130;SDS011;7666;50.920;4.628;2023-07-29T06:44:34;2.17;;;1.00;;
15130;SDS011;7666;50.920;4.628;2023-07-29T06:47:20;2.33;;;0.90;;
15130;SDS011;7666;50.920;4.628;2023-07-29T06:50:06;5.00;;;1.53;;
15130;SDS011;7666;50.920;4.628;2023-07-29T06:52:52;3.70;;;1.30;;
15130;SDS011;7666;50.920;4.628;2023-07-29T06:55:38;1.77;;;1.27;;
15130;SDS011;7666;50.920;4.628;2023-07-29T06:58:24;2.93;;;1.23;;
15130;SDS011;7666;50.920;4.628;2023-07-29T07:01:10;3.37;;;1.10;;
15130;SDS011;7666;50.920;4.628;2023-07-29T07:03:56;1.83;;;0.97;;
15130;SDS011;7666;50.920;4.628;2023-07-29T07:06:43;1.33;;;1.20;;
15130;SDS011;7666;50.920;4.628;2023-07-29T07:09:29;1.20;;;0.83;;
15130;SDS011;7666;50.920;4.628;2023-07-29T07:12:15;1.10;;;1.00;;
15130;SDS011;7666;50.920;4.628;2023-07-29T07:15:01;3.20;;;1.10;;
15130;SDS011;7666;50.920;4.628;2023-07-29T07:17:47;1.30;;;1.13;;
15130;SDS011;7666;50.920;4.628;2023-07-29T07:20:34;1.90;;;0.90;;
15130;SDS011;7666;50.920;4.628;2023-07-29T07:23:20;1.77;;;1.00;;
15130;SDS011;7666;50.920;4.628;2023-07-29T07:26:06;2.87;;;1.00;;
15130;SDS011;7666;50.920;4.628;2023-07-29T07:28:52;1.40;;;1.10;;
15130;SDS011;7666;50.920;4.628;2023-07-29T07:31:38;1.00;;;0.90;;
15130;SDS011;7666;50.920;4.628;2023-07-29T07:34:24;1.83;;;1.07;;
15130;SDS011;7666;50.920;4.628;2023-07-29T07:37:10;1.00;;;0.90;;
15130;SDS011;7666;50.920;4.628;2023-07-29T07:39:56;2.23;;;1.00;;
15130;SDS011;7666;50.920;4.628;2023-07-29T07:42:42;1.07;;;0.80;;
15130;SDS011;7666;50.920;4.628;2023-07-29T07:45:28;1.13;;;1.07;;
15130;SDS011;7666;50.920;4.628;2023-07-29T07:48:14;4.40;;;1.23;;
15130;SDS011;7666;50.920;4.628;2023-07-29T07:51:09;3.93;;;1.10;;
15130;SDS011;7666;50.920;4.628;2023-07-29T07:53:56;2.00;;;1.20;;
15130;SDS011;7666;50.920;4.628;2023-07-29T07:56:42;1.47;;;1.10;;
15130;SDS011;7666;50.920;4.628;2023-07-29T07:59:29;1.50;;;1.23;;
15130;SDS011;7666;50.920;4.628;2023-07-29T08:02:14;3.50;;;1.00;;
15130;SDS011;7666;50.920;4.628;2023-07-29T08:05:00;1.30;;;1.00;;
15130;SDS011;7666;50.920;4.628;2023-07-29T08:07:46;2.73;;;1.03;;
15130;SDS011;7666;50.920;4.628;2023-07-29T08:10:32;1.40;;;1.10;;
15130;SDS011;7666;50.920;4.628;2023-07-29T08:13:19;1.17;;;1.03;;
15130;SDS011;7666;50.920;4.628;2023-07-29T08:16:05;3.17;;;2.00;;
15130;SDS011;7666;50.920;4.628;2023-07-29T08:18:51;3.10;;;1.10;;
15130;SDS011;7666;50.920;4.628;2023-07-29T08:21:37;2.37;;;1.10;;
15130;SDS011;7666;50.920;4.628;2023-07-29T08:24:23;2.37;;;1.20;;
15130;SDS011;7666;50.920;4.628;2023-07-29T08:27:09;3.67;;;1.10;;
15130;SDS011;7666;50.920;4.628;2023-07-29T08:29:55;2.43;;;1.00;;
15130;SDS011;7666;50.920;4.628;2023-07-29T08:32:41;1.10;;;0.97;;
15130;SDS011;7666;50.920;4.628;2023-07-29T08:35:27;2.23;;;1.10;;
15130;SDS011;7666;50.920;4.628;2023-07-29T08:38:13;3.07;;;1.00;;
15130;SDS011;7666;50.920;4.628;2023-07-29T08:44:23;1.53;;;0.90;;
15130;SDS011;7666;50.920;4.628;2023-07-29T08:47:11;1.43;;;1.00;;
15130;SDS011;7666;50.920;4.628;2023-07-29T08:50:01;2.00;;;1.00;;
15130;SDS011;7666;50.920;4.628;2023-07-29T08:52:48;1.40;;;1.00;;
15130;SDS011;7666;50.920;4.628;2023-07-29T08:55:35;1.30;;;1.00;;
15130;SDS011;7666;50.920;4.628;2023-07-29T08:58:21;0.97;;;0.80;;
15130;SDS011;7666;50.920;4.628;2023-07-29T09:01:08;0.87;;;0.80;;
15130;SDS011;7666;50.920;4.628;2023-07-29T09:03:54;1.57;;;0.97;;
15130;SDS011;7666;50.920;4.628;2023-07-29T09:06:40;3.23;;;1.00;;
15130;SDS011;7666;50.920;4.628;2023-07-29T09:09:28;1.87;;;1.00;;
15130;SDS011;7666;50.920;4.628;2023-07-29T09:12:14;2.30;;;1.07;;
15130;SDS011;7666;50.920;4.628;2023-07-29T09:15:00;2.57;;;1.20;;
15130;SDS011;7666;50.920;4.628;2023-07-29T09:17:46;2.07;;;1.40;;
15130;SDS011;7666;50.920;4.628;2023-07-29T09:20:33;1.20;;;1.10;;
15130;SDS011;7666;50.920;4.628;2023-07-29T09:23:19;2.07;;;1.30;;
15130;SDS011;7666;50.920;4.628;2023-07-29T09:26:05;1.43;;;1.10;;
15130;SDS011;7666;50.920;4.628;2023-07-29T09:28:58;1.40;;;1.17;;
15130;SDS011;7666;50.920;4.628;2023-07-29T09:31:45;1.97;;;1.43;;
15130;SDS011;7666;50.920;4.628;2023-07-29T09:34:30;4.07;;;1.37;;
15130;SDS011;7666;50.920;4.628;2023-07-29T09:37:17;2.50;;;1.17;;
15130;SDS011;7666;50.920;4.628;2023-07-29T09:40:06;1.50;;;1.10;;
15130;SDS011;7666;50.920;4.628;2023-07-29T09:42:58;1.80;;;1.03;;
15130;SDS011;7666;50.920;4.628;2023-07-29T09:45:45;2.57;;;1.43;;
15130;SDS011;7666;50.920;4.628;2023-07-29T09:48:35;1.77;;;1.10;;
15130;SDS011;7666;50.920;4.628;2023-07-29T09:51:22;4.60;;;1.47;;
15130;SDS011;7666;50.920;4.628;2023-07-29T09:54:08;2.37;;;1.50;;
15130;SDS011;7666;50.920;4.628;2023-07-29T09:56:56;1.40;;;1.30;;
15130;SDS011;7666;50.920;4.628;2023-07-29T09:59:42;1.40;;;1.30;;
15130;SDS011;7666;50.920;4.628;2023-07-29T10:02:28;1.40;;;1.30;;
15130;SDS011;7666;50.920;4.628;2023-07-29T10:05:15;1.30;;;1.10;;
15130;SDS011;7666;50.920;4.628;2023-07-29T10:08:02;2.63;;;1.20;;
15130;SDS011;7666;50.920;4.628;2023-07-29T10:10:49;1.87;;;1.07;;
15130;SDS011;7666;50.920;4.628;2023-07-29T10:13:36;1.50;;;1.40;;
15130;SDS011;7666;50.920;4.628;2023-07-29T10:16:23;3.13;;;1.40;;
15130;SDS011;7666;50.920;4.628;2023-07-29T10:19:10;2.03;;;1.30;;
15130;SDS011;7666;50.920;4.628;2023-07-29T10:22:01;1.33;;;1.23;;
15130;SDS011;7666;50.920;4.628;2023-07-29T10:24:49;2.07;;;1.23;;
15130;SDS011;7666;50.920;4.628;2023-07-29T10:28:10;1.43;;;1.10;;
15130;SDS011;7666;50.920;4.628;2023-07-29T10:30:52;1.40;;;1.20;;
15130;SDS011;7666;50.920;4.628;2023-07-29T10:33:39;1.33;;;1.23;;
15130;SDS011;7666;50.920;4.628;2023-07-29T10:36:26;1.60;;;1.20;;
15130;SDS011;7666;50.920;4.628;2023-07-29T10:39:13;1.83;;;1.10;;
15130;SDS011;7666;50.920;4.628;2023-07-29T10:42:00;2.33;;;1.23;;
15130;SDS011;7666;50.920;4.628;2023-07-29T10:47:34;1.17;;;1.07;;
15130;SDS011;7666;50.920;4.628;2023-07-29T10:50:21;1.30;;;1.20;;
15130;SDS011;7666;50.920;4.628;2023-07-29T10:53:07;1.90;;;1.30;;
15130;SDS011;7666;50.920;4.628;2023-07-29T10:55:53;3.03;;;1.70;;
15130;SDS011;7666;50.920;4.628;2023-07-29T10:58:41;2.00;;;1.50;;
15130;SDS011;7666;50.920;4.628;2023-07-29T11:01:29;3.90;;;1.83;;
15130;SDS011;7666;50.920;4.628;2023-07-29T11:09:58;4.10;;;1.53;;
15130;SDS011;7666;50.920;4.628;2023-07-29T11:12:45;1.93;;;1.50;;
15130;SDS011;7666;50.920;4.628;2023-07-29T11:15:33;3.73;;;1.77;;
15130;SDS011;7666;50.920;4.628;2023-07-29T11:18:19;3.27;;;1.70;;
15130;SDS011;7666;50.920;4.628;2023-07-29T11:21:06;2.27;;;1.40;;
15130;SDS011;7666;50.920;4.628;2023-07-29T11:23:52;3.23;;;1.50;;
15130;SDS011;7666;50.920;4.628;2023-07-29T11:26:45;2.03;;;1.40;;
15130;SDS011;7666;50.920;4.628;2023-07-29T11:29:32;3.07;;;1.83;;
15130;SDS011;7666;50.920;4.628;2023-07-29T11:32:18;2.97;;;1.50;;
15130;SDS011;7666;50.920;4.628;2023-07-29T11:35:04;3.10;;;1.70;;
15130;SDS011;7666;50.920;4.628;2023-07-29T11:37:53;2.87;;;2.00;;
15130;SDS011;7666;50.920;4.628;2023-07-29T11:40:41;2.00;;;1.80;;
15130;SDS011;7666;50.920;4.628;2023-07-29T11:43:28;3.60;;;1.57;;
15130;SDS011;7666;50.920;4.628;2023-07-29T11:46:14;2.60;;;1.70;;
15130;SDS011;7666;50.920;4.628;2023-07-29T11:49:00;2.47;;;1.60;;
15130;SDS011;7666;50.920;4.628;2023-07-29T11:51:46;3.10;;;1.50;;
15130;SDS011;7666;50.920;4.628;2023-07-29T11:54:32;1.47;;;1.37;;
15130;SDS011;7666;50.920;4.628;2023-07-29T11:57:20;1.53;;;1.43;;
15130;SDS011;7666;50.920;4.628;2023-07-29T12:00:07;1.80;;;1.50;;
15130;SDS011;7666;50.920;4.628;2023-07-29T12:02:55;1.30;;;1.20;;
15130;SDS011;7666;50.920;4.628;2023-07-29T12:05:42;2.47;;;1.67;;
15130;SDS011;7666;50.920;4.628;2023-07-29T12:08:28;1.40;;;1.30;;
15130;SDS011;7666;50.920;4.628;2023-07-29T12:11:14;2.03;;;1.37;;
15130;SDS011;7666;50.920;4.628;2023-07-29T12:14:00;2.37;;;1.50;;
15130;SDS011;7666;50.920;4.628;2023-07-29T12:16:47;1.50;;;1.40;;
15130;SDS011;7666;50.920;4.628;2023-07-29T12:19:38;2.00;;;1.50;;
15130;SDS011;7666;50.920;4.628;2023-07-29T12:22:24;2.17;;;1.40;;
15130;SDS011;7666;50.920;4.628;2023-07-29T12:25:10;1.77;;;1.47;;
15130;SDS011;7666;50.920;4.628;2023-07-29T12:28:01;1.50;;;1.40;;
15130;SDS011;7666;50.920;4.628;2023-07-29T12:30:53;3.50;;;1.60;;
15130;SDS011;7666;50.920;4.628;2023-07-29T12:33:42;3.27;;;1.73;;
15130;SDS011;7666;50.920;4.628;2023-07-29T12:36:43;5.27;;;2.23;;
15130;SDS011;7666;50.920;4.628;2023-07-29T12:39:40;10.43;;;3.13;;
15130;SDS011;7666;50.920;4.628;2023-07-29T12:42:29;4.90;;;2.17;;
15130;SDS011;7666;50.920;4.628;2023-07-29T12:45:15;2.27;;;1.83;;
15130;SDS011;7666;50.920;4.628;2023-07-29T12:48:03;3.23;;;2.07;;
15130;SDS011;7666;50.920;4.628;2023-07-29T12:50:49;3.37;;;2.20;;
15130;SDS011;7666;50.920;4.628;2023-07-29T12:53:35;2.53;;;2.13;;
15130;SDS011;7666;50.920;4.628;2023-07-29T12:56:21;3.63;;;2.10;;
15130;SDS011;7666;50.920;4.628;2023-07-29T12:59:07;8.30;;;4.70;;
15130;SDS011;7666;50.920;4.628;2023-07-29T13:01:53;5.20;;;2.67;;
15130;SDS011;7666;50.920;4.628;2023-07-29T13:04:39;3.33;;;1.93;;
15130;SDS011;7666;50.920;4.628;2023-07-29T13:07:24;3.33;;;2.20;;
15130;SDS011;7666;50.920;4.628;2023-07-29T13:10:10;2.50;;;2.30;;
15130;SDS011;7666;50.920;4.628;2023-07-29T13:12:57;2.53;;;2.33;;
15130;SDS011;7666;50.920;4.628;2023-07-29T13:15:43;3.07;;;2.20;;
15130;SDS011;7666;50.920;4.628;2023-07-29T13:18:29;2.60;;;2.10;;
15130;SDS011;7666;50.920;4.628;2023-07-29T13:21:15;2.80;;;2.00;;
15130;SDS011;7666;50.920;4.628;2023-07-29T13:24:01;1.90;;;1.80;;
15130;SDS011;7666;50.920;4.628;2023-07-29T13:26:47;2.37;;;2.17;;
15130;SDS011;7666;50.920;4.628;2023-07-29T13:29:33;2.27;;;2.07;;
15130;SDS011;7666;50.920;4.628;2023-07-29T13:32:19;2.17;;;1.80;;
15130;SDS011;7666;50.920;4.628;2023-07-29T13:35:05;2.70;;;1.67;;
15130;SDS011;7666;50.920;4.628;2023-07-29T13:37:52;4.10;;;1.40;;
15130;SDS011;7666;50.920;4.628;2023-07-29T13:40:38;3.53;;;1.50;;
15130;SDS011;7666;50.920;4.628;2023-07-29T13:43:24;1.30;;;1.23;;
15130;SDS011;7666;50.920;4.628;2023-07-29T13:46:10;1.53;;;1.43;;
15130;SDS011;7666;50.920;4.628;2023-07-29T13:48:56;1.87;;;1.60;;
15130;SDS011;7666;50.920;4.628;2023-07-29T13:51:42;1.50;;;1.40;;
15130;SDS011;7666;50.920;4.628;2023-07-29T13:54:28;3.00;;;1.57;;
15130;SDS011;7666;50.920;4.628;2023-07-29T13:57:14;1.60;;;1.50;;
15130;SDS011;7666;50.920;4.628;2023-07-29T14:00:00;1.77;;;1.47;;
15130;SDS011;7666;50.920;4.628;2023-07-29T14:02:46;1.60;;;1.50;;
15130;SDS011;7666;50.920;4.628;2023-07-29T14:05:32;1.70;;;1.60;;
15130;SDS011;7666;50.920;4.628;2023-07-29T14:08:18;1.50;;;1.40;;
15130;SDS011;7666;50.920;4.628;2023-07-29T14:11:04;1.70;;;1.60;;
15130;SDS011;7666;50.920;4.628;2023-07-29T14:13:50;2.33;;;1.60;;
15130;SDS011;7666;50.920;4.628;2023-07-29T14:16:36;2.30;;;1.27;;
15130;SDS011;7666;50.920;4.628;2023-07-29T14:19:22;1.87;;;1.50;;
15130;SDS011;7666;50.920;4.628;2023-07-29T14:22:09;1.50;;;1.40;;
15130;SDS011;7666;50.920;4.628;2023-07-29T14:24:55;2.80;;;1.40;;
15130;SDS011;7666;50.920;4.628;2023-07-29T14:27:41;1.30;;;1.20;;
15130;SDS011;7666;50.920;4.628;2023-07-29T14:30:27;1.40;;;1.17;;
15130;SDS011;7666;50.920;4.628;2023-07-29T14:33:13;1.20;;;1.10;;
15130;SDS011;7666;50.920;4.628;2023-07-29T14:36:00;3.93;;;1.40;;
15130;SDS011;7666;50.920;4.628;2023-07-29T14:38:46;1.07;;;1.07;;
15130;SDS011;7666;50.920;4.628;2023-07-29T14:41:32;1.30;;;1.20;;
15130;SDS011;7666;50.920;4.628;2023-07-29T14:44:18;1.73;;;1.00;;
15130;SDS011;7666;50.920;4.628;2023-07-29T14:47:04;1.13;;;1.03;;
15130;SDS011;7666;50.920;4.628;2023-07-29T14:49:50;1.60;;;1.10;;
15130;SDS011;7666;50.920;4.628;2023-07-29T14:52:36;1.03;;;0.93;;
15130;SDS011;7666;50.920;4.628;2023-07-29T14:55:22;2.13;;;1.10;;
15130;SDS011;7666;50.920;4.628;2023-07-29T14:58:08;1.57;;;1.10;;
15130;SDS011;7666;50.920;4.628;2023-07-29T15:00:54;2.20;;;1.00;;
15130;SDS011;7666;50.920;4.628;2023-07-29T15:03:40;0.90;;;0.90;;
15130;SDS011;7666;50.920;4.628;2023-07-29T15:06:26;2.23;;;1.07;;
15130;SDS011;7666;50.920;4.628;2023-07-29T15:09:12;1.20;;;1.10;;
15130;SDS011;7666;50.920;4.628;2023-07-29T15:11:58;0.80;;;0.80;;
15130;SDS011;7666;50.920;4.628;2023-07-29T15:14:44;2.00;;;1.33;;
15130;SDS011;7666;50.920;4.628;2023-07-29T15:17:30;2.03;;;1.30;;
15130;SDS011;7666;50.920;4.628;2023-07-29T15:20:16;2.47;;;1.10;;
15130;SDS011;7666;50.920;4.628;2023-07-29T15:23:02;0.93;;;0.93;;
15130;SDS011;7666;50.920;4.628;2023-07-29T15:25:48;1.97;;;1.20;;
15130;SDS011;7666;50.920;4.628;2023-07-29T15:28:34;1.30;;;1.10;;
15130;SDS011;7666;50.920;4.628;2023-07-29T15:31:20;4.40;;;1.23;;
15130;SDS011;7666;50.920;4.628;2023-07-29T15:34:07;2.33;;;1.10;;
15130;SDS011;7666;50.920;4.628;2023-07-29T15:36:53;1.63;;;1.40;;
15130;SDS011;7666;50.920;4.628;2023-07-29T15:39:39;1.20;;;1.10;;
15130;SDS011;7666;50.920;4.628;2023-07-29T15:42:25;1.63;;;1.03;;
15130;SDS011;7666;50.920;4.628;2023-07-29T15:45:11;1.90;;;1.00;;
15130;SDS011;7666;50.920;4.628;2023-07-29T15:47:57;0.97;;;0.90;;
15130;SDS011;7666;50.920;4.628;2023-07-29T15:50:43;1.93;;;0.97;;
15130;SDS011;7666;50.920;4.628;2023-07-29T15:53:29;1.03;;;0.93;;
15130;SDS011;7666;50.920;4.628;2023-07-29T15:56:15;1.43;;;0.80;;
15130;SDS011;7666;50.920;4.628;2023-07-29T15:59:01;3.10;;;0.80;;
15130;SDS011;7666;50.920;4.628;2023-07-29T16:01:48;0.83;;;0.83;;
15130;SDS011;7666;50.920;4.628;2023-07-29T16:04:35;1.07;;;0.80;;
15130;SDS011;7666;50.920;4.628;2023-07-29T16:07:21;4.83;;;1.13;;
15130;SDS011;7666;50.920;4.628;2023-07-29T16:10:08;0.80;;;0.80;;
15130;SDS011;7666;50.920;4.628;2023-07-29T16:12:54;0.90;;;0.80;;
15130;SDS011;7666;50.920;4.628;2023-07-29T16:15:40;0.87;;;0.87;;
15130;SDS011;7666;50.920;4.628;2023-07-29T16:18:26;2.40;;;1.07;;
15130;SDS011;7666;50.920;4.628;2023-07-29T16:21:12;1.13;;;1.03;;
15130;SDS011;7666;50.920;4.628;2023-07-29T16:23:58;1.33;;;1.10;;
15130;SDS011;7666;50.920;4.628;2023-07-29T16:26:44;2.80;;;1.27;;
15130;SDS011;7666;50.920;4.628;2023-07-29T16:29:30;1.63;;;1.13;;
15130;SDS011;7666;50.920;4.628;2023-07-29T16:32:16;1.37;;;1.20;;
15130;SDS011;7666;50.920;4.628;2023-07-29T16:35:03;1.53;;;1.43;;
15130;SDS011;7666;50.920;4.628;2023-07-29T16:37:49;1.40;;;1.30;;
15130;SDS011;7666;50.920;4.628;2023-07-29T16:40:35;2.93;;;1.30;;
15130;SDS011;7666;50.920;4.628;2023-07-29T16:43:21;2.00;;;1.17;;
15130;SDS011;7666;50.920;4.628;2023-07-29T16:46:07;1.23;;;1.13;;
15130;SDS011;7666;50.920;4.628;2023-07-29T16:48:53;1.17;;;1.13;;
15130;SDS011;7666;50.920;4.628;2023-07-29T16:51:39;1.70;;;1.40;;
15130;SDS011;7666;50.920;4.628;2023-07-29T16:54:25;1.70;;;1.60;;
15130;SDS011;7666;50.920;4.628;2023-07-29T16:57:11;1.40;;;1.30;;
15130;SDS011;7666;50.920;4.628;2023-07-29T16:59:57;2.20;;;1.40;;
15130;SDS011;7666;50.920;4.628;2023-07-29T17:02:43;3.17;;;1.20;;
15130;SDS011;7666;50.920;4.628;2023-07-29T17:05:29;1.70;;;1.30;;
15130;SDS011;7666;50.920;4.628;2023-07-29T17:08:15;2.47;;;1.50;;
15130;SDS011;7666;50.920;4.628;2023-07-29T17:11:01;1.10;;;1.00;;
15130;SDS011;7666;50.920;4.628;2023-07-29T17:13:47;1.47;;;1.10;;
15130;SDS011;7666;50.920;4.628;2023-07-29T17:16:33;1.13;;;1.00;;